Historyczne dane pomiarowe

Dodano dane terminowe – wersja testowa.

Dane z okresu 1951-2019

Wersja bazy: 1.34 [2019-03-16, lista zmian], aktualizacja planowana na 2019-04-15

Dane meteo z obszaru Polski uzyskane na podstawie danych udostępnionych przez Instytut Meteorologii i Gospodarki Wodnej – Państwowy Instytut Badawczy.

 

Wybierz Datę:    

       

TemperaturaWilgotnośćWiatrCiśnienieOpadyŚniegCzas trwania zjawisk
 Stacja t tx tn tng RH VA  wxwx mslp ppp RRR   cm mm wxwxwxwxwxwxwx
2014-10-11 13.6 23.8 7.3 6.4 85.8- 4.0----- 0.0------------
2014-10-12 14.6 22.3 11.0 8.7 87.3- 5.0----- 0.1------------
2014-10-13 15.3 23.2 8.8 8.1 87.3- 4.0----- 0.0------------
2014-10-14 17.0 25.0 12.3 10.8 82.0- 5.0----- 4.4------------
2014-10-15 12.8 17.6 9.5 6.5 89.3- 5.3----- 0.2------------
2014-10-16 12.3 16.7 8.4 7.1 92.5- 7.7----- 5.6------------
2014-10-17 13.0 14.9 11.9 11.1 96.3- 7.7----- 5.0------------
2014-10-18 10.0 13.2 8.3 6.8 92.0- 6.7----- 0.0------------
2014-10-19 9.4 17.1 4.6 3.7 89.5- 5.3----- 0.0------------
2014-10-20 12.8 16.5 8.7 7.3 87.5- 7.3----- 1.3------------
2014-10-21 10.7 14.7 8.2 6.7 88.0- 7.0----- 0.7------------
2014-10-22 10.1 15.3 5.4 5.4 90.5- 7.7----- 18.3------------
2014-10-23 6.6 11.8 3.2 2.5 93.0- 8.0----- 0.5------------
2014-10-24 1.3 3.4 0.2 -0.5 74.0- 8.0----- 0.0------------
2014-10-25 0.8 6.2 -1.5 -2.4 82.5- 5.0----- 0.0------------
2014-10-26 0.8 7.4 -3.0 -3.8 76.5- 3.3----- 0.0------------
2014-10-27 1.7 11.1 -3.4 -5.0 80.0- 0.7----- 0.0------------
2014-10-28 2.1 13.4 -4.0 -4.5 71.0- 1.3----- 0.0------------
2014-10-29 2.3 11.3 -2.3 -3.8 76.3- 1.3----- 0.0------------
2014-10-30 1.7 10.3 -2.6 -3.3 89.8- 2.0----- 0.0------------
2014-10-31 3.1 6.4 -1.7 -2.4 95.3- 7.7----- 0.0------------
2014-11-01 3.8 7.3 0.4 -0.4 89.0- 7.0----- 0.0------------
2014-11-02 4.4 11.6 -1.0 -1.8 86.8- 6.3----- 0.0------------
2014-11-03 6.0 15.3 0.3 -0.9 83.3- 2.7----- 0.0------------
2014-11-04 8.1 15.9 1.3 -1.5 74.3- 4.7----- 0.0------------
2014-11-05 9.3 17.3 4.6 1.4 72.5- 0.7----- 0.0------------
2014-11-06 11.5 19.3 4.0 1.5 72.5- 6.3----- 0.0------------
2014-11-07 12.8 18.2 8.9 6.7 79.3- 7.0----- 0.1------------
2014-11-08 14.6 21.2 11.1 9.6 84.3- 6.3----- 9.5------------
2014-11-09 12.0 14.1 11.0 10.7 95.3- 8.0----- 0.0------------
133.1 ms

 

Źródłem pochodzenia danych jest Instytut Meteorologii i Gospodarki Wodnej – Państwowy Instytut Badawczy. Dane Instytutu Meteorologii i Gospodarki Wodnej – Państwowego Instytutu Badawczego zostały przetworzone.

Dane źródłowe można odnaleźć na stronie https://dane.imgw.pl